createdAt,value
2023-03-05T00:00:50.346Z,5.30
2023-03-05T00:01:50.350Z,5.20
2023-03-05T00:02:50.451Z,6.70
2023-03-05T00:03:50.420Z,6.60
2023-03-05T00:04:50.405Z,5.90
2023-03-05T00:05:50.400Z,5.70
2023-03-05T00:06:50.424Z,6.90
2023-03-05T00:07:50.422Z,5.70
2023-03-05T00:08:50.446Z,5.00
2023-03-05T00:09:50.450Z,4.50
2023-03-05T00:10:50.473Z,4.80
2023-03-05T00:11:50.475Z,4.40
2023-03-05T00:12:50.501Z,4.50
2023-03-05T00:13:50.502Z,5.00
2023-03-05T00:14:50.528Z,5.60
2023-03-05T00:15:50.566Z,6.80
2023-03-05T00:16:50.550Z,4.60
2023-03-05T00:17:50.552Z,5.30
2023-03-05T00:18:50.577Z,4.80
2023-03-05T00:19:50.584Z,4.30
2023-03-05T00:20:50.603Z,6.10
2023-03-05T00:21:50.600Z,3.80
2023-03-05T00:22:50.620Z,5.50
2023-03-05T00:23:50.662Z,3.90
2023-03-05T00:24:50.650Z,7.50
2023-03-05T00:25:50.659Z,5.50
2023-03-05T00:26:50.672Z,5.50
2023-03-05T00:27:50.791Z,4.40
2023-03-05T00:28:50.708Z,5.90
2023-03-05T00:29:50.706Z,7.70
2023-03-05T00:30:50.756Z,10.90
2023-03-05T00:31:50.734Z,9.60
2023-03-05T00:32:50.759Z,8.80
2023-03-05T00:33:50.763Z,13.90
2023-03-05T00:34:50.789Z,9.60
2023-03-05T00:35:50.843Z,10.20
2023-03-05T00:36:50.814Z,11.30
2023-03-05T00:37:50.818Z,9.20
2023-03-05T00:38:50.836Z,6.40
2023-03-05T00:39:50.839Z,6.10
2023-03-05T00:40:50.863Z,6.40
2023-03-05T00:41:50.864Z,6.70
2023-03-05T00:42:50.896Z,7.30
2023-03-05T00:43:50.896Z,6.70
2023-03-05T00:44:50.916Z,6.00
2023-03-05T00:45:50.922Z,6.40
2023-03-05T00:46:50.976Z,6.20
2023-03-05T00:47:50.948Z,4.40
2023-03-05T00:48:50.974Z,6.10
2023-03-05T00:49:50.972Z,3.70
2023-03-05T00:50:50.993Z,3.80
2023-03-05T00:51:51.000Z,4.20
2023-03-05T00:52:51.019Z,4.90
2023-03-05T00:53:51.021Z,5.20
2023-03-05T00:54:51.046Z,5.00
2023-03-05T00:55:51.049Z,5.50
2023-03-05T00:56:51.075Z,4.60
2023-03-05T00:57:51.080Z,3.30
2023-03-05T00:58:51.096Z,3.60
2023-03-05T00:59:51.106Z,4.90
2023-03-05T01:00:51.629Z,3.70
2023-03-05T01:01:51.169Z,4.30
2023-03-05T01:02:51.152Z,3.80
2023-03-05T01:03:51.150Z,3.80
2023-03-05T01:04:51.209Z,5.00
2023-03-05T01:05:51.171Z,4.10
2023-03-05T01:06:51.193Z,4.80
2023-03-05T01:07:51.197Z,4.00
2023-03-05T01:08:51.218Z,4.70
2023-03-05T01:09:51.220Z,5.30
2023-03-05T01:10:51.240Z,5.00
2023-03-05T01:11:51.240Z,4.10
2023-03-05T01:12:51.263Z,4.10
2023-03-05T01:13:51.269Z,5.60
2023-03-05T01:14:51.287Z,7.70
2023-03-05T01:15:51.349Z,5.00
2023-03-05T01:16:51.317Z,5.30
2023-03-05T01:17:51.318Z,3.90
2023-03-05T01:18:51.331Z,4.20
2023-03-05T01:19:51.337Z,6.30
2023-03-05T01:20:51.357Z,5.30
2023-03-05T01:21:51.369Z,4.40
2023-03-05T01:22:51.392Z,4.70
2023-03-05T01:23:51.387Z,4.90
2023-03-05T01:24:51.410Z,7.40
2023-03-05T01:25:51.416Z,5.70
2023-03-05T01:26:51.434Z,6.30
2023-03-05T01:27:51.436Z,6.40
2023-03-05T01:28:51.461Z,7.30
2023-03-05T01:29:51.467Z,5.30
2023-03-05T01:30:51.486Z,5.20
2023-03-05T01:31:51.618Z,6.20
2023-03-05T01:32:51.504Z,6.50
2023-03-05T01:33:51.519Z,9.10
2023-03-05T01:34:51.529Z,8.00
2023-03-05T01:35:51.597Z,5.80
2023-03-05T01:36:51.552Z,9.10
2023-03-05T01:37:51.573Z,6.10
2023-03-05T01:38:51.581Z,6.40
2023-03-05T01:39:51.599Z,8.90
2023-03-05T01:40:51.607Z,9.10
2023-03-05T01:41:51.631Z,6.10
2023-03-05T01:42:51.634Z,9.90
2023-03-05T01:43:51.659Z,8.20
2023-03-05T01:44:51.693Z,7.40
2023-03-05T01:45:51.724Z,9.40
2023-03-05T01:46:51.695Z,7.60
2023-03-05T01:47:51.733Z,7.30
2023-03-05T01:48:51.705Z,7.40
2023-03-05T01:49:51.728Z,12.10
2023-03-05T01:50:51.734Z,6.00
2023-03-05T01:51:51.749Z,8.70
2023-03-05T01:52:51.766Z,6.40
2023-03-05T01:53:51.775Z,8.60
2023-03-05T01:54:51.779Z,6.60
2023-03-05T01:55:51.809Z,6.20
2023-03-05T01:56:51.812Z,5.90
2023-03-05T01:57:51.829Z,7.80
2023-03-05T01:58:51.838Z,8.50
2023-03-05T01:59:51.852Z,6.70
2023-03-05T02:00:51.873Z,6.80
2023-03-05T02:01:51.877Z,7.70
2023-03-05T02:02:51.878Z,8.40
2023-03-05T02:03:51.939Z,7.80
2023-03-05T02:04:51.909Z,8.50
2023-03-05T02:05:51.925Z,9.50
2023-03-05T02:06:51.930Z,8.60
2023-03-05T02:07:51.951Z,9.10
2023-03-05T02:08:51.958Z,9.30
2023-03-05T02:09:51.976Z,8.10
2023-03-05T02:10:51.982Z,8.10
2023-03-05T02:11:52.005Z,10.00
2023-03-05T02:12:52.010Z,8.50
2023-03-05T02:13:52.039Z,9.10
2023-03-05T02:14:52.039Z,8.70
2023-03-05T02:15:52.061Z,6.60
2023-03-05T02:16:52.119Z,8.50
2023-03-05T02:17:52.082Z,6.80
2023-03-05T02:18:52.087Z,9.20
2023-03-05T02:19:52.105Z,6.90
2023-03-05T02:20:52.116Z,7.40
2023-03-05T02:21:52.263Z,5.80
2023-03-05T02:22:52.137Z,6.90
2023-03-05T02:23:52.169Z,6.30
2023-03-05T02:24:52.182Z,6.10
2023-03-05T02:25:52.195Z,5.30
2023-03-05T02:26:52.189Z,5.60
2023-03-05T02:27:52.214Z,5.50
2023-03-05T02:28:52.219Z,5.90
2023-03-05T02:29:52.236Z,5.80
2023-03-05T02:30:52.237Z,7.60
2023-03-05T02:31:52.333Z,6.40
2023-03-05T02:32:52.268Z,5.60
2023-03-05T02:33:52.285Z,5.00
2023-03-05T02:34:52.293Z,6.90
2023-03-05T02:35:52.363Z,5.80
2023-03-05T02:36:52.321Z,7.30
2023-03-05T02:37:52.337Z,6.10
2023-03-05T02:38:52.344Z,6.10
2023-03-05T02:39:52.365Z,5.80
2023-03-05T02:40:52.371Z,6.10
2023-03-05T02:41:52.389Z,7.00
2023-03-05T02:42:52.395Z,6.90
2023-03-05T02:43:52.432Z,8.50
2023-03-05T02:44:52.418Z,8.20
2023-03-05T02:45:52.492Z,7.00
2023-03-05T02:46:52.439Z,10.20
2023-03-05T02:47:52.467Z,6.30
2023-03-05T02:48:52.472Z,7.40
2023-03-05T02:49:52.496Z,5.90
2023-03-05T02:50:52.494Z,6.00
2023-03-05T02:51:52.520Z,6.20
2023-03-05T02:52:52.519Z,5.10
2023-03-05T02:53:52.543Z,6.40
2023-03-05T02:54:52.544Z,8.60
2023-03-05T02:55:52.566Z,6.00
2023-03-05T02:56:52.570Z,7.20
2023-03-05T02:57:52.599Z,8.00
2023-03-05T02:58:52.592Z,8.50
2023-03-05T02:59:52.665Z,8.90
2023-03-05T03:00:52.690Z,7.00
2023-03-05T03:01:52.642Z,6.00
2023-03-05T03:02:52.692Z,5.60
2023-03-05T03:03:52.667Z,7.40
2023-03-05T03:04:52.670Z,7.70
2023-03-05T03:05:52.690Z,5.40
2023-03-05T03:06:52.703Z,7.20
2023-03-05T03:07:52.712Z,7.60
2023-03-05T03:08:52.716Z,7.40
2023-03-05T03:09:52.738Z,6.10
2023-03-05T03:10:52.768Z,5.70
2023-03-05T03:11:52.767Z,7.20
2023-03-05T03:12:52.770Z,6.30
2023-03-05T03:13:52.796Z,6.00
2023-03-05T03:14:52.790Z,6.60
2023-03-05T03:15:52.811Z,6.00
2023-03-05T03:16:52.861Z,6.90
2023-03-05T03:17:52.847Z,8.30
2023-03-05T03:18:52.849Z,8.70
2023-03-05T03:19:52.866Z,9.50
2023-03-05T03:20:52.868Z,16.00
2023-03-05T03:21:52.892Z,14.60
2023-03-05T03:22:53.396Z,15.50
2023-03-05T03:23:52.917Z,12.70
2023-03-05T03:24:52.922Z,14.20
2023-03-05T03:25:52.943Z,14.20
2023-03-05T03:26:52.949Z,12.50
2023-03-05T03:27:52.969Z,8.60
2023-03-05T03:28:52.974Z,8.60
2023-03-05T03:29:52.996Z,33.60
2023-03-05T03:30:53.048Z,27.00
2023-03-05T03:31:53.020Z,39.60
2023-03-05T03:32:53.021Z,28.30
2023-03-05T03:33:53.045Z,11.10
2023-03-05T03:34:53.048Z,7.80
2023-03-05T03:35:53.111Z,6.60
2023-03-05T03:36:53.079Z,8.10
2023-03-05T03:37:53.094Z,7.30
2023-03-05T03:38:53.100Z,7.70
2023-03-05T03:39:53.126Z,7.80
2023-03-05T03:40:53.129Z,6.60
2023-03-05T03:41:53.146Z,8.80
2023-03-05T03:42:53.154Z,6.30
2023-03-05T03:43:53.173Z,7.30
2023-03-05T03:44:53.173Z,6.80
2023-03-05T03:45:53.299Z,6.60
2023-03-05T03:46:53.199Z,8.10
2023-03-05T03:47:53.228Z,8.30
2023-03-05T03:48:54.031Z,9.10
2023-03-05T03:49:53.253Z,8.90
2023-03-05T03:50:53.251Z,7.50
2023-03-05T03:51:53.270Z,7.50
2023-03-05T03:52:53.276Z,6.00
2023-03-05T03:53:53.293Z,6.10
2023-03-05T03:54:53.303Z,6.80
2023-03-05T03:55:53.322Z,5.10
2023-03-05T03:56:53.333Z,5.80
2023-03-05T03:57:53.347Z,6.20
2023-03-05T03:58:53.355Z,5.10
2023-03-05T03:59:53.374Z,6.40
2023-03-05T04:00:53.379Z,8.00
2023-03-05T04:01:53.397Z,5.50
2023-03-05T04:02:53.418Z,5.50
2023-03-05T04:03:53.488Z,8.00
2023-03-05T04:04:53.431Z,6.50
2023-03-05T04:05:53.447Z,5.20
2023-03-05T04:06:53.452Z,5.10
2023-03-05T04:07:53.473Z,5.50
2023-03-05T04:08:53.481Z,8.20
2023-03-05T04:09:53.498Z,5.20
2023-03-05T04:10:53.497Z,5.40
2023-03-05T04:11:53.518Z,6.40
2023-03-05T04:12:53.523Z,6.50
2023-03-05T04:13:53.560Z,5.10
2023-03-05T04:14:53.547Z,4.70
2023-03-05T04:15:53.748Z,5.20
2023-03-05T04:16:53.577Z,4.50
2023-03-05T04:17:53.602Z,5.80
2023-03-05T04:18:53.596Z,3.80
2023-03-05T04:19:53.621Z,4.40
2023-03-05T04:20:53.622Z,6.50
2023-03-05T04:21:53.764Z,4.80
2023-03-05T04:22:53.646Z,4.60
2023-03-05T04:23:53.670Z,3.80
2023-03-05T04:24:53.670Z,3.60
2023-03-05T04:25:53.690Z,6.00
2023-03-05T04:26:53.696Z,5.00
2023-03-05T04:27:53.716Z,10.10
2023-03-05T04:28:53.720Z,7.00
2023-03-05T04:29:53.733Z,3.20
2023-03-05T04:30:53.758Z,6.40
2023-03-05T04:31:53.775Z,5.90
2023-03-05T04:32:53.770Z,4.50
2023-03-05T04:33:53.785Z,4.10
2023-03-05T04:34:53.786Z,5.70
2023-03-05T04:35:53.829Z,4.00
2023-03-05T04:36:53.812Z,5.30
2023-03-05T04:37:53.832Z,5.80
2023-03-05T04:38:53.832Z,5.30
2023-03-05T04:39:53.852Z,4.30
2023-03-05T04:40:53.856Z,4.80
2023-03-05T04:41:53.874Z,3.80
2023-03-05T04:42:53.883Z,5.80
2023-03-05T04:43:53.904Z,4.20
2023-03-05T04:44:53.901Z,4.40
2023-03-05T04:45:53.925Z,6.90
2023-03-05T04:46:53.930Z,6.30
2023-03-05T04:47:53.955Z,4.30
2023-03-05T04:48:53.955Z,6.60
2023-03-05T04:49:53.975Z,4.70
2023-03-05T04:50:53.976Z,4.90
2023-03-05T04:51:53.999Z,4.40
2023-03-05T04:52:53.999Z,5.90
2023-03-05T04:53:54.021Z,5.60
2023-03-05T04:54:54.024Z,5.30
2023-03-05T04:55:54.045Z,5.60
2023-03-05T04:56:54.049Z,3.90
2023-03-05T04:57:54.074Z,5.30
2023-03-05T04:58:54.072Z,5.40
2023-03-05T04:59:54.094Z,7.20
2023-03-05T05:00:54.095Z,8.40
2023-03-05T05:01:54.195Z,6.70
2023-03-05T05:02:54.179Z,5.00
2023-03-05T05:03:54.140Z,5.10
2023-03-05T05:04:54.147Z,5.00
2023-03-05T05:05:54.170Z,6.10
2023-03-05T05:06:54.172Z,6.10
2023-03-05T05:07:54.189Z,5.20
2023-03-05T05:08:54.195Z,3.80
2023-03-05T05:09:54.213Z,5.60
2023-03-05T05:10:54.221Z,4.90
2023-03-05T05:11:54.241Z,4.80
2023-03-05T05:12:54.258Z,4.40
2023-03-05T05:13:54.263Z,3.90
2023-03-05T05:14:54.260Z,4.70
2023-03-05T05:15:54.359Z,9.60
2023-03-05T05:16:54.288Z,15.40
2023-03-05T05:17:54.307Z,24.20
2023-03-05T05:18:54.310Z,8.30
2023-03-05T05:19:54.331Z,8.40
2023-03-05T05:20:54.340Z,8.70
2023-03-05T05:21:54.350Z,11.50
2023-03-05T05:22:54.360Z,9.00
2023-03-05T05:23:54.379Z,12.40
2023-03-05T05:24:54.378Z,7.90
2023-03-05T05:25:54.406Z,12.30
2023-03-05T05:26:54.401Z,11.10
2023-03-05T05:27:54.421Z,20.20
2023-03-05T05:28:54.425Z,13.30
2023-03-05T05:29:54.446Z,24.70
2023-03-05T05:30:54.444Z,16.60
2023-03-05T05:31:54.510Z,9.60
2023-03-05T05:32:54.488Z,10.40
2023-03-05T05:33:54.488Z,15.40
2023-03-05T05:34:54.492Z,15.60
2023-03-05T05:35:54.567Z,14.30
2023-03-05T05:36:54.519Z,15.70
2023-03-05T05:37:54.536Z,14.80
2023-03-05T05:38:54.551Z,14.90
2023-03-05T05:39:54.568Z,16.00
2023-03-05T05:40:54.568Z,14.20
2023-03-05T05:41:54.580Z,14.20
2023-03-05T05:42:54.584Z,14.30
2023-03-05T05:43:54.599Z,14.00
2023-03-05T05:44:54.606Z,14.00
2023-03-05T05:45:54.787Z,13.80
2023-03-05T05:46:54.636Z,15.30
2023-03-05T05:47:54.632Z,15.70
2023-03-05T05:48:54.655Z,15.20
2023-03-05T05:49:54.656Z,15.80
2023-03-05T05:50:54.677Z,16.80
2023-03-05T05:51:54.676Z,15.40
2023-03-05T05:52:54.702Z,14.20
2023-03-05T05:53:54.695Z,13.50
2023-03-05T05:54:54.716Z,16.10
2023-03-05T05:55:54.718Z,13.50
2023-03-05T05:56:54.740Z,14.00
2023-03-05T05:57:54.748Z,14.10
2023-03-05T05:58:54.762Z,15.60
2023-03-05T05:59:54.761Z,12.90
2023-03-05T06:00:54.777Z,12.40
2023-03-05T06:01:54.809Z,12.80
2023-03-05T06:02:54.839Z,13.70
2023-03-05T06:03:54.809Z,12.30
2023-03-05T06:04:56.657Z,13.20
2023-03-05T06:05:54.822Z,13.40
2023-03-05T06:06:54.849Z,15.00
2023-03-05T06:07:54.841Z,11.60
2023-03-05T06:08:54.879Z,15.10
2023-03-05T06:09:54.865Z,11.90
2023-03-05T06:10:54.886Z,13.40
2023-03-05T06:11:54.886Z,13.30
2023-03-05T06:12:54.931Z,13.20
2023-03-05T06:13:54.906Z,11.10
2023-03-05T06:14:54.928Z,12.30
2023-03-05T06:15:54.925Z,13.10
2023-03-05T06:16:54.994Z,13.30
2023-03-05T06:17:54.955Z,15.80
2023-03-05T06:18:54.971Z,13.90
2023-03-05T06:19:54.969Z,13.80
2023-03-05T06:20:54.992Z,13.70
2023-03-05T06:21:55.101Z,12.60
2023-03-05T06:22:55.006Z,12.90
2023-03-05T06:23:55.009Z,13.50
2023-03-05T06:24:55.031Z,13.50
2023-03-05T06:25:55.031Z,13.20
2023-03-05T06:26:55.055Z,13.80
2023-03-05T06:27:55.052Z,12.80
2023-03-05T06:28:55.085Z,13.30
2023-03-05T06:29:55.071Z,11.20
2023-03-05T06:30:55.151Z,12.00
2023-03-05T06:31:55.091Z,12.00
2023-03-05T06:32:55.108Z,12.90
2023-03-05T06:33:55.118Z,13.10
2023-03-05T06:34:55.134Z,12.70
2023-03-05T06:35:55.209Z,12.00
2023-03-05T06:36:55.153Z,12.80
2023-03-05T06:37:55.152Z,14.30
2023-03-05T06:38:55.177Z,14.10
2023-03-05T06:39:55.173Z,12.90
2023-03-05T06:40:55.198Z,12.60
2023-03-05T06:41:55.197Z,12.40
2023-03-05T06:42:55.212Z,11.50
2023-03-05T06:43:55.214Z,13.10
2023-03-05T06:44:55.232Z,12.50
2023-03-05T06:45:55.267Z,12.20
2023-03-05T06:46:55.252Z,12.50
2023-03-05T06:47:55.255Z,13.10
2023-03-05T06:48:55.272Z,13.60
2023-03-05T06:49:55.278Z,11.70
2023-03-05T06:50:55.290Z,11.70
2023-03-05T06:51:55.299Z,11.50
2023-03-05T06:52:55.314Z,11.40
2023-03-05T06:53:55.319Z,10.90
2023-03-05T06:54:55.340Z,10.10
2023-03-05T06:55:55.333Z,10.90
2023-03-05T06:56:55.357Z,10.60
2023-03-05T06:57:55.359Z,10.70
2023-03-05T06:58:55.378Z,10.40
2023-03-05T06:59:55.375Z,8.80
2023-03-05T07:00:55.421Z,9.30
2023-03-05T07:01:55.398Z,8.20
2023-03-05T07:02:55.413Z,8.00
2023-03-05T07:03:55.424Z,8.50
2023-03-05T07:04:55.435Z,8.90
2023-03-05T07:05:55.439Z,8.60
2023-03-05T07:06:55.452Z,9.80
2023-03-05T07:07:55.458Z,8.00
2023-03-05T07:08:55.474Z,8.40
2023-03-05T07:09:55.480Z,8.00
2023-03-05T07:10:55.492Z,8.40
2023-03-05T07:11:55.506Z,8.30
2023-03-05T07:12:55.525Z,8.10
2023-03-05T07:13:55.516Z,8.70
2023-03-05T07:14:55.538Z,8.20
2023-03-05T07:15:55.550Z,8.10
2023-03-05T07:16:55.573Z,7.90
2023-03-05T07:17:55.557Z,8.10
2023-03-05T07:18:55.579Z,8.20
2023-03-05T07:19:55.580Z,9.90
2023-03-05T07:20:55.596Z,14.80
2023-03-05T07:21:55.738Z,16.80
2023-03-05T07:22:55.622Z,18.40
2023-03-05T07:23:55.625Z,19.40
2023-03-05T07:24:55.672Z,19.70
2023-03-05T07:25:55.637Z,20.60
2023-03-05T07:26:55.664Z,18.80
2023-03-05T07:27:55.666Z,17.70
2023-03-05T07:28:55.677Z,19.60
2023-03-05T07:29:55.680Z,17.60
2023-03-05T07:30:55.765Z,15.20
2023-03-05T07:31:55.702Z,14.70
2023-03-05T07:32:55.723Z,16.00
2023-03-05T07:33:55.718Z,14.00
2023-03-05T07:34:55.744Z,12.10
2023-03-05T07:35:55.785Z,10.30
2023-03-05T07:36:55.760Z,7.80
2023-03-05T07:37:55.769Z,6.90
2023-03-05T07:38:55.785Z,5.60
2023-03-05T07:39:55.783Z,6.50
2023-03-05T07:40:55.801Z,5.50
2023-03-05T07:41:55.805Z,5.60
2023-03-05T07:42:55.828Z,4.60
2023-03-05T07:43:55.833Z,5.30
2023-03-05T07:44:55.843Z,4.70
2023-03-05T07:45:55.881Z,4.90
2023-03-05T07:46:55.862Z,5.50
2023-03-05T07:47:55.866Z,3.60
2023-03-05T07:48:55.892Z,3.70
2023-03-05T07:49:55.890Z,2.70
2023-03-05T07:50:55.908Z,3.40
2023-03-05T07:51:55.904Z,3.50
2023-03-05T07:52:55.976Z,3.10
2023-03-05T07:53:55.928Z,4.10
2023-03-05T07:54:55.946Z,2.60
2023-03-05T07:55:55.945Z,3.10
2023-03-05T07:56:55.969Z,3.20
2023-03-05T07:57:55.967Z,2.40
2023-03-05T07:58:55.989Z,3.00
2023-03-05T07:59:55.984Z,3.30
2023-03-05T08:00:56.018Z,2.90
2023-03-05T08:01:56.004Z,3.20
2023-03-05T08:02:56.025Z,3.10
2023-03-05T08:03:56.053Z,2.80
2023-03-05T08:04:56.047Z,3.60
2023-03-05T08:05:56.050Z,5.80
2023-03-05T08:06:56.067Z,2.80
2023-03-05T08:07:56.069Z,3.70
2023-03-05T08:08:56.093Z,4.30
2023-03-05T08:09:56.098Z,2.70
2023-03-05T08:10:56.111Z,3.00
2023-03-05T08:11:56.126Z,3.80
2023-03-05T08:12:56.126Z,4.00
2023-03-05T08:13:56.133Z,3.30
2023-03-05T08:14:56.147Z,4.20
2023-03-05T08:15:56.155Z,2.80
2023-03-05T08:16:56.169Z,4.20
2023-03-05T08:17:56.170Z,3.60
2023-03-05T08:18:56.187Z,3.40
2023-03-05T08:19:56.190Z,3.80
2023-03-05T08:20:56.215Z,3.90
2023-03-05T08:21:56.513Z,5.10
2023-03-05T08:22:56.234Z,5.40
2023-03-05T08:23:56.228Z,3.40
2023-03-05T08:24:56.258Z,4.00
2023-03-05T08:25:56.251Z,3.40
2023-03-05T08:26:56.268Z,3.40
2023-03-05T08:27:56.273Z,4.50
2023-03-05T08:28:56.299Z,6.30
2023-03-05T08:29:56.296Z,4.90
2023-03-05T08:30:56.368Z,5.20
2023-03-05T08:31:56.330Z,4.50
2023-03-05T08:32:56.335Z,5.90
2023-03-05T08:33:56.334Z,4.30
2023-03-05T08:34:56.361Z,5.90
2023-03-05T08:35:56.387Z,5.10
2023-03-05T08:36:56.379Z,4.00
2023-03-05T08:37:56.378Z,3.50
2023-03-05T08:38:56.397Z,3.80
2023-03-05T08:39:56.401Z,4.10
2023-03-05T08:40:56.421Z,4.10
2023-03-05T08:41:56.423Z,3.80
2023-03-05T08:42:56.441Z,3.10
2023-03-05T08:43:56.439Z,3.50
2023-03-05T08:44:56.486Z,4.10
2023-03-05T08:45:56.461Z,4.70
2023-03-05T08:46:56.544Z,4.50
2023-03-05T08:47:56.482Z,3.30
2023-03-05T08:48:56.498Z,3.70
2023-03-05T08:49:56.509Z,5.10
2023-03-05T08:50:56.554Z,5.50
2023-03-05T08:51:56.521Z,3.20
2023-03-05T08:52:56.542Z,4.50
2023-03-05T08:53:56.543Z,4.30
2023-03-05T08:54:56.566Z,5.40
2023-03-05T08:55:56.583Z,4.70
2023-03-05T08:56:56.589Z,5.40
2023-03-05T08:57:56.587Z,4.90
2023-03-05T08:58:56.676Z,2.90
2023-03-05T08:59:56.607Z,3.40
2023-03-05T09:00:56.639Z,3.90
2023-03-05T09:01:56.665Z,3.10
2023-03-05T09:02:56.701Z,3.80
2023-03-05T09:03:56.656Z,3.00
2023-03-05T09:04:56.671Z,2.80
2023-03-05T09:05:56.669Z,2.50
2023-03-05T09:06:56.688Z,2.10
2023-03-05T09:07:56.691Z,2.90
2023-03-05T09:08:56.716Z,2.90
2023-03-05T09:09:56.709Z,3.00
2023-03-05T09:10:56.733Z,4.60
2023-03-05T09:11:56.730Z,3.90
2023-03-05T09:12:56.751Z,2.10
2023-03-05T09:13:56.752Z,3.40
2023-03-05T09:14:56.771Z,2.90
2023-03-05T09:15:56.867Z,3.30
2023-03-05T09:16:56.794Z,2.60
2023-03-05T09:17:56.790Z,4.50
2023-03-05T09:18:56.808Z,2.70
2023-03-05T09:19:56.812Z,2.80
2023-03-05T09:20:56.842Z,5.00
2023-03-05T09:21:57.185Z,2.60
2023-03-05T09:22:56.850Z,2.60
2023-03-05T09:23:56.854Z,3.30
2023-03-05T09:24:56.873Z,2.00
2023-03-05T09:25:56.874Z,2.10
2023-03-05T09:26:56.889Z,3.20
2023-03-05T09:27:56.894Z,2.20
2023-03-05T09:28:56.921Z,3.00
2023-03-05T09:29:56.912Z,2.40
2023-03-05T09:30:56.936Z,3.30
2023-03-05T09:31:57.025Z,3.60
2023-03-05T09:32:56.956Z,2.70
2023-03-05T09:33:56.961Z,2.40
2023-03-05T09:34:56.985Z,5.40
2023-03-05T09:35:57.023Z,2.30
2023-03-05T09:36:56.998Z,3.10
2023-03-05T09:37:57.005Z,2.80
2023-03-05T09:38:57.025Z,2.20
2023-03-05T09:39:57.023Z,3.20
2023-03-05T09:40:57.048Z,3.20
2023-03-05T09:41:57.052Z,2.60
2023-03-05T09:42:57.076Z,2.70
2023-03-05T09:43:57.062Z,2.90
2023-03-05T09:44:57.088Z,3.60
2023-03-05T09:45:57.141Z,3.00
2023-03-05T09:46:57.110Z,2.40
2023-03-05T09:47:57.123Z,2.00
2023-03-05T09:48:57.135Z,2.90
2023-03-05T09:49:57.132Z,3.80
2023-03-05T09:50:57.151Z,3.30
2023-03-05T09:51:57.156Z,1.90
2023-03-05T09:52:57.172Z,2.20
2023-03-05T09:53:57.194Z,2.50
2023-03-05T09:54:57.253Z,2.30
2023-03-05T09:55:57.205Z,2.70
2023-03-05T09:56:57.220Z,2.40
2023-03-05T09:57:57.225Z,3.30
2023-03-05T09:58:57.241Z,3.00
2023-03-05T09:59:57.243Z,2.30
2023-03-05T10:00:57.266Z,2.30
2023-03-05T10:01:57.267Z,4.20
2023-03-05T10:02:57.290Z,2.50
2023-03-05T10:03:57.370Z,2.60
2023-03-05T10:04:57.300Z,2.20
2023-03-05T10:05:57.327Z,2.30
2023-03-05T10:06:57.320Z,2.50
2023-03-05T10:07:57.346Z,5.40
2023-03-05T10:08:57.353Z,3.10
2023-03-05T10:09:57.378Z,3.60
2023-03-05T10:10:57.370Z,2.40
2023-03-05T10:11:57.417Z,4.40
2023-03-05T10:12:57.396Z,2.20
2023-03-05T10:13:57.415Z,2.30
2023-03-05T10:14:57.430Z,4.70
2023-03-05T10:15:57.448Z,3.60
2023-03-05T10:16:57.488Z,3.90
2023-03-05T10:17:57.461Z,2.40
2023-03-05T10:18:57.471Z,2.70
2023-03-05T10:19:57.490Z,4.10
2023-03-05T10:20:57.485Z,2.80
2023-03-05T10:21:57.510Z,2.90
2023-03-05T10:22:57.514Z,3.30
2023-03-05T10:23:57.532Z,2.80
2023-03-05T10:24:57.536Z,3.00
2023-03-05T10:25:57.560Z,3.00
2023-03-05T10:26:57.633Z,3.40
2023-03-05T10:27:57.608Z,2.20
2023-03-05T10:28:57.582Z,2.70
2023-03-05T10:29:57.609Z,4.10
2023-03-05T10:30:57.609Z,2.70
2023-03-05T10:31:57.758Z,3.70
2023-03-05T10:32:57.632Z,5.40
2023-03-05T10:33:57.655Z,4.40
2023-03-05T10:34:57.669Z,4.10
2023-03-05T10:35:57.773Z,3.00
2023-03-05T10:36:58.392Z,2.40
2023-03-05T10:37:57.699Z,3.30
2023-03-05T10:38:57.701Z,2.30
2023-03-05T10:39:57.726Z,4.80
2023-03-05T10:40:57.732Z,3.90
2023-03-05T10:41:57.747Z,4.40
2023-03-05T10:42:57.753Z,4.20
2023-03-05T10:43:57.775Z,3.10
2023-03-05T10:44:57.777Z,3.80
2023-03-05T10:45:57.862Z,2.90
2023-03-05T10:46:57.807Z,6.10
2023-03-05T10:47:57.823Z,3.10
2023-03-05T10:48:57.828Z,4.00
2023-03-05T10:49:57.847Z,4.50
2023-03-05T10:50:57.857Z,3.80
2023-03-05T10:51:57.882Z,2.90
2023-03-05T10:52:57.888Z,2.20
2023-03-05T10:53:57.899Z,6.10
2023-03-05T10:54:57.910Z,3.60
2023-03-05T10:55:57.942Z,2.80
2023-03-05T10:56:57.935Z,3.40
2023-03-05T10:57:57.950Z,3.80
2023-03-05T10:58:57.957Z,3.00
2023-03-05T10:59:57.980Z,4.60
2023-03-05T11:00:58.025Z,4.80
2023-03-05T11:01:58.007Z,4.10
2023-03-05T11:02:58.005Z,3.10
2023-03-05T11:03:58.044Z,3.10
2023-03-05T11:04:58.036Z,2.40
2023-03-05T11:05:58.074Z,4.70
2023-03-05T11:06:58.068Z,2.50
2023-03-05T11:07:58.081Z,3.70
2023-03-05T11:08:58.087Z,3.50
2023-03-05T11:09:58.107Z,4.00
2023-03-05T11:10:58.114Z,3.70
2023-03-05T11:11:58.142Z,5.40
2023-03-05T11:12:58.139Z,5.20
2023-03-05T11:13:58.180Z,5.10
2023-03-05T11:14:58.167Z,4.10
2023-03-05T11:15:58.233Z,3.10
2023-03-05T11:16:58.195Z,4.30
2023-03-05T11:17:58.219Z,5.30
2023-03-05T11:18:58.224Z,4.20
2023-03-05T11:19:58.246Z,3.10
2023-03-05T11:20:58.252Z,4.40
2023-03-05T11:21:59.788Z,4.70
2023-03-05T11:22:58.279Z,3.70
2023-03-05T11:23:58.331Z,6.20
2023-03-05T11:24:58.304Z,3.60
2023-03-05T11:25:58.365Z,3.20
2023-03-05T11:26:58.335Z,4.70
2023-03-05T11:27:58.358Z,5.80
2023-03-05T11:28:58.375Z,2.40
2023-03-05T11:29:58.386Z,3.50
2023-03-05T11:30:58.423Z,2.60
2023-03-05T11:31:58.443Z,3.80
2023-03-05T11:32:58.427Z,5.80
2023-03-05T11:33:58.491Z,3.50
2023-03-05T11:34:58.481Z,3.30
2023-03-05T11:35:58.499Z,3.40
2023-03-05T11:36:58.488Z,6.80
2023-03-05T11:37:58.527Z,3.10
2023-03-05T11:38:58.526Z,2.40
2023-03-05T11:39:58.559Z,3.80
2023-03-05T11:40:58.572Z,3.50
2023-03-05T11:41:58.579Z,3.50
2023-03-05T11:42:58.606Z,3.90
2023-03-05T11:43:58.608Z,5.60
2023-03-05T11:44:58.641Z,2.80
2023-03-05T11:45:58.676Z,3.40
2023-03-05T11:46:58.658Z,3.30
2023-03-05T11:47:58.685Z,5.50
2023-03-05T11:48:58.692Z,3.70
2023-03-05T11:49:58.722Z,3.20
2023-03-05T11:50:58.731Z,4.20
2023-03-05T11:51:58.755Z,3.30
2023-03-05T11:52:58.761Z,3.30
2023-03-05T11:53:58.789Z,3.00
2023-03-05T11:54:58.802Z,3.20
2023-03-05T11:55:58.838Z,2.60
2023-03-05T11:56:58.832Z,2.80
2023-03-05T11:57:58.872Z,3.10
2023-03-05T11:58:58.878Z,4.10
2023-03-05T11:59:58.899Z,4.10
2023-03-05T12:00:58.921Z,2.50
2023-03-05T12:01:58.932Z,3.30
2023-03-05T12:02:58.974Z,2.90
2023-03-05T12:03:59.003Z,2.20
2023-03-05T12:04:58.978Z,4.40
2023-03-05T12:05:59.003Z,2.60
2023-03-05T12:06:59.012Z,2.20
2023-03-05T12:07:59.044Z,3.30
2023-03-05T12:08:59.062Z,4.10
2023-03-05T12:09:59.081Z,2.80
2023-03-05T12:10:59.083Z,3.10
2023-03-05T12:11:59.113Z,3.40
2023-03-05T12:12:59.124Z,5.60
2023-03-05T12:13:59.153Z,2.20
2023-03-05T12:14:59.165Z,2.30
2023-03-05T12:15:59.204Z,4.00
2023-03-05T12:16:59.202Z,2.70
2023-03-05T12:17:59.224Z,3.30
2023-03-05T12:18:59.230Z,3.20
2023-03-05T12:19:59.262Z,2.70
2023-03-05T12:20:59.274Z,2.90
2023-03-05T12:21:59.295Z,4.00
2023-03-05T12:22:59.312Z,3.50
2023-03-05T12:23:59.348Z,3.40
2023-03-05T12:24:59.345Z,3.30
2023-03-05T12:25:59.424Z,3.10
2023-03-05T12:26:59.393Z,2.00
2023-03-05T12:27:59.419Z,2.20
2023-03-05T12:28:59.429Z,2.30
2023-03-05T12:29:59.456Z,3.10
2023-03-05T12:30:59.535Z,2.10
2023-03-05T12:31:59.544Z,2.90
2023-03-05T12:32:59.512Z,2.10
2023-03-05T12:33:59.614Z,2.80
2023-03-05T12:34:59.549Z,2.20
2023-03-05T12:35:59.612Z,2.30
2023-03-05T12:36:59.602Z,3.30
2023-03-05T12:37:59.630Z,3.50
2023-03-05T12:38:59.630Z,2.70
2023-03-05T12:39:59.701Z,3.00
2023-03-05T12:40:59.674Z,4.20
2023-03-05T12:41:59.710Z,2.20
2023-03-05T12:42:59.708Z,3.40
2023-03-05T12:43:59.737Z,2.90
2023-03-05T12:44:59.757Z,2.50
2023-03-05T12:45:59.792Z,3.20
2023-03-05T12:46:59.892Z,3.50
2023-03-05T12:47:59.821Z,2.60
2023-03-05T12:48:59.832Z,2.80
2023-03-05T12:49:59.874Z,3.40
2023-03-05T12:50:59.875Z,2.00
2023-03-05T12:51:59.897Z,3.10
2023-03-05T12:52:59.909Z,3.00
2023-03-05T12:53:59.943Z,2.50
2023-03-05T12:54:59.955Z,2.00
2023-03-05T12:55:59.985Z,2.80
2023-03-05T12:56:59.987Z,1.80
2023-03-05T12:58:00.022Z,4.10
2023-03-05T12:59:00.024Z,2.30
2023-03-05T13:00:00.068Z,3.50
2023-03-05T13:01:00.193Z,2.70
2023-03-05T13:02:00.104Z,3.30
2023-03-05T13:03:00.115Z,1.80
2023-03-05T13:04:00.201Z,3.10
2023-03-05T13:05:00.140Z,3.10
2023-03-05T13:06:00.157Z,2.50
2023-03-05T13:07:00.169Z,2.90
2023-03-05T13:08:00.213Z,2.40
2023-03-05T13:09:00.213Z,2.00
2023-03-05T13:10:00.262Z,2.60
2023-03-05T13:11:00.249Z,3.00
2023-03-05T13:12:00.341Z,3.20
2023-03-05T13:13:00.283Z,2.00
2023-03-05T13:14:00.316Z,2.80
2023-03-05T13:15:00.325Z,2.20